Flugplatz Uelzen

Für EDVU sind keine METAR/TAF Berichte vorhanden.
Es werden die Flugwettermeldungen vom Flugplatz Fassberg Airport in 20 km Entfernung angezeigt.

Bericht für ETHS

vom 01.12. um 09:20 UTC

Wind 15 kt aus 230°

Sichtweite 8000 m

schwacher Regen

gering bewölkt in 1000 ft

aufgebrochene Bewölkung in 1800 ft

Temperatur 8.0°C

Taupunkt 6.0°C

Luftfeuchtigkeit 87%

Luftdruck 988 hPa

ETHS 010920Z 23015KT 8000 -RA FEW010 BKN018 08/06 Q0988 WHT WHT TEMPO GRN

Prognose für ETHS

vom 01.12. um 08:20 UTC

Zwischen 09:00 UTC und 18:00 UTC

Wind 18 kt aus 220°

Sichtweite 8000 m

schwacher Regen

aufgelockert bewölkt in 1000 ft

bedeckt in 1600 ft


Zwischen 09:00 UTC und 18:00 UTC zeitweise

Wind 20 kt aus 240° in Böen 35 kt

Sichtweite 4000 m

Regen

aufgelockert bewölkt in 500 ft

aufgebrochene Bewölkung in 800 ft

TAF ETHS 010820Z 0109/0118 22018KT 8000 -RA SCT010 OVC016 TEMPO 0109/0118 24020G35KT 4000 RA SCT005 BKN008
Impressum